Time;durP1;ratioP1;P1;durP2;ratioP2;P2;SDS_P1;SDS_P2;PMS_P1;PMS_P2;Temp;Humidity;BMP_temperature;BMP_pressure;BME280_temperature;BME280_humidity;BME280_pressure;Samples;Min_cycle;Max_cycle;Signal;HPM_P1;HPM_P2
2022/04/11 00:34:29;;;;;;;;;;;;;;;16.31;53.67;102017.28;6337160;22;19914;-84
2022/04/11 01:21:31;;;;;;;;;;;;;;;16.27;53.52;102005.16;6324567;22;19910;-82
2022/04/11 01:24:08;;;;;;;;;;;;;;;16.27;53.51;102003.41;6271791;23;19916;-82
2022/04/11 01:26:41;;;;;;;;;;;;;;;16.25;53.46;102003.38;6272378;23;19922;-82
2022/04/11 01:34:56;;;;;;;;;;;;;;;16.26;53.50;101993.84;6272180;23;19918;-82
2022/04/11 01:43:30;;;;;;;;;;;;;;;16.23;53.33;101983.44;6270920;23;19915;-82
2022/04/11 01:45:58;;;;;;;;;;;;;;;16.25;53.34;101990.41;6270998;23;20352;-82
2022/04/11 01:48:29;;;;;;;;;;;;;;;16.22;53.32;101985.16;6246977;23;19912;-81
2022/04/11 01:50:58;;;;;;;;;;;;;;;16.23;53.48;101986.91;6271193;23;19907;-82
2022/04/11 01:53:24;;;;;;;;;;;;;;;16.22;53.28;101985.16;6252278;23;19908;-82
2022/04/11 01:55:58;;;;;;;;;;;;;;;16.24;53.34;101991.25;6301222;22;19933;-82
2022/04/11 01:58:24;;;;;;;;;;;;;;;16.23;53.16;101989.50;6334313;22;19914;-82
2022/04/11 02:00:52;;;;;;;;;;;;;;;16.23;53.32;101986.91;6307002;22;19895;-82
2022/04/11 02:03:19;;;;;;;;;;;;;;;16.23;53.04;101978.25;6282448;22;19911;-82
2022/04/11 02:09:07;;;;;;;;;;;;;;;16.22;53.24;101986.88;6335123;22;19914;-82
2022/04/11 02:11:54;;;;;;;;;;;;;;;16.21;53.17;101975.63;6329938;22;19907;-81
2022/04/11 02:17:24;;;;;;;;;;;;;;;16.20;53.15;101979.06;6334918;22;19914;-82
2022/04/11 02:23:01;;;;;;;;;;;;;;;16.19;53.07;101979.91;6166345;23;19922;-82
2022/04/11 02:25:40;;;;;;;;;;;;;;;16.19;53.20;101976.44;6179919;23;19919;-82
2022/04/11 02:28:10;;;;;;;;;;;;;;;16.20;53.09;101976.47;6179971;23;19948;-82
2022/04/11 02:30:59;;;;;;;;;;;;;;;16.19;52.99;101979.91;6187336;23;19909;-82
2022/04/11 02:36:29;;;;;;;;;;;;;;;16.18;52.92;101974.72;6180073;23;19903;-82
2022/04/11 02:38:56;;;;;;;;;;;;;;;16.19;52.90;101971.25;6179859;23;19916;-82
2022/04/11 02:41:24;;;;;;;;;;;;;;;16.18;52.95;101977.31;6179204;23;19909;-82
2022/04/11 02:44:10;;;;;;;;;;;;;;;16.17;53.03;101975.56;6180112;23;19915;-82
2022/04/11 02:46:42;;;;;;;;;;;;;;;16.17;52.91;101972.97;6204404;23;19909;-82
2022/04/11 02:49:27;;;;;;;;;;;;;;;16.16;53.05;101966.03;6155020;23;20393;-81
2022/04/11 02:51:53;;;;;;;;;;;;;;;16.16;53.02;101963.44;6202257;23;19915;-82
2022/04/11 02:54:19;;;;;;;;;;;;;;;16.15;52.99;101964.28;6178308;23;19952;-81
2022/04/11 02:56:47;;;;;;;;;;;;;;;16.16;52.94;101966.91;6178850;23;19909;-81
2022/04/11 02:59:15;;;;;;;;;;;;;;;16.17;52.76;101966.03;6154608;23;19932;-82
2022/04/11 03:04:48;;;;;;;;;;;;;;;16.16;53.03;101960.84;6179293;23;19923;-82
2022/04/11 03:07:33;;;;;;;;;;;;;;;16.17;52.97;101963.44;6179832;23;19973;-82
2022/04/11 03:10:01;;;;;;;;;;;;;;;16.17;53.00;101955.63;6178919;23;19892;-82
2022/04/11 03:15:35;;;;;;;;;;;;;;;16.16;52.66;101958.25;6191176;22;19916;-82
2022/04/11 03:18:22;;;;;;;;;;;;;;;16.16;52.62;101948.72;6301870;22;19917;-82
2022/04/11 03:21:13;;;;;;;;;;;;;;;16.15;52.89;101951.28;6302439;22;19911;-82
2022/04/11 03:23:42;;;;;;;;;;;;;;;16.16;52.77;101946.13;6286053;22;19915;-82
2022/04/11 03:26:08;;;;;;;;;;;;;;;16.16;52.65;101943.53;6306383;22;19934;-82
2022/04/11 03:28:53;;;;;;;;;;;;;;;16.16;52.74;101942.66;6279110;22;19971;-82
2022/04/11 03:31:19;;;;;;;;;;;;;;;16.15;52.84;101943.50;6332832;22;19911;-82
2022/04/11 03:33:47;;;;;;;;;;;;;;;16.15;52.68;101941.75;6304010;22;19910;-82
2022/04/11 03:36:15;;;;;;;;;;;;;;;16.15;52.79;101939.16;6304848;22;19907;-82
2022/04/11 03:38:41;;;;;;;;;;;;;;;16.16;52.74;101946.13;6303936;22;19931;-81
2022/04/11 03:41:11;;;;;;;;;;;;;;;16.15;52.81;101938.31;6330240;22;19971;-81
2022/04/11 03:43:37;;;;;;;;;;;;;;;16.15;52.56;101940.91;6331655;22;19914;-81
2022/04/11 03:46:03;;;;;;;;;;;;;;;16.14;52.80;101946.97;6303401;22;19907;-81
2022/04/11 03:48:35;;;;;;;;;;;;;;;16.13;52.91;101937.41;6330757;22;19919;-81
2022/04/11 03:51:01;;;;;;;;;;;;;;;16.14;52.76;101939.16;6304845;22;19956;-82
2022/04/11 03:53:35;;;;;;;;;;;;;;;16.15;52.67;101946.09;6332067;22;19911;-82
2022/04/11 03:56:02;;;;;;;;;;;;;;;16.14;52.83;101941.75;6333186;22;19898;-82
2022/04/11 04:04:36;;;;;;;;;;;;;;;16.15;52.51;101926.19;6239764;23;19914;-82
2022/04/11 04:07:04;;;;;;;;;;;;;;;16.12;52.80;101931.34;6237553;23;19908;-82
2022/04/11 04:12:35;;;;;;;;;;;;;;;16.14;52.80;101932.25;6237856;23;19914;-81
2022/04/11 04:15:02;;;;;;;;;;;;;;;16.13;52.44;101927.88;6235189;23;19939;-82
2022/04/11 04:17:29;;;;;;;;;;;;;;;16.12;52.36;101928.75;6212706;23;19951;-81
2022/04/11 04:19:56;;;;;;;;;;;;;;;16.13;52.75;101924.41;6212010;23;19896;-83
2022/04/11 04:22:24;;;;;;;;;;;;;;;16.14;52.33;101926.19;6237103;23;19908;-82
2022/04/11 04:24:53;;;;;;;;;;;;;;;16.13;52.35;101925.28;6188115;23;19920;-77
2022/04/11 04:27:19;;;;;;;;;;;;;;;16.12;52.46;101915.75;6179415;23;19916;-80
2022/04/11 04:29:44;;;;;;;;;;;;;;;16.13;52.39;101912.31;6256807;22;19977;-78
2022/04/11 04:32:10;;;;;;;;;;;;;;;16.13;52.60;101914.03;6294466;22;19907;-82
2022/04/11 04:34:37;;;;;;;;;;;;;;;16.13;52.31;101920.09;6326942;22;19956;-80
2022/04/11 04:37:02;;;;;;;;;;;;;;;16.13;52.41;101920.09;6325447;22;19929;-80
2022/04/11 04:39:28;;;;;;;;;;;;;;;16.14;52.41;101918.38;6325504;22;19951;-80
2022/04/11 04:41:53;;;;;;;;;;;;;;;16.14;52.53;101914.06;6274539;22;19911;-82
2022/04/11 04:44:19;;;;;;;;;;;;;;;16.13;52.41;101911.44;6329565;22;19907;-80
2022/04/11 04:46:44;;;;;;;;;;;;;;;16.13;52.13;101911.44;6302470;22;19918;-82
2022/04/11 04:49:09;;;;;;;;;;;;;;;16.13;52.61;101912.31;6304602;22;19907;-81
2022/04/11 04:51:35;;;;;;;;;;;;;;;16.13;52.00;101911.44;6305454;22;19891;-81
2022/04/11 04:54:01;;;;;;;;;;;;;;;16.12;52.36;101910.56;6303536;22;19907;-81
2022/04/11 04:56:28;;;;;;;;;;;;;;;16.13;52.25;101903.66;6303639;22;19910;-81
2022/04/11 05:05:07;;;;;;;;;;;;;;;16.12;52.49;101914.91;6335831;22;19942;-82
2022/04/11 05:07:52;;;;;;;;;;;;;;;16.11;51.89;101914.00;6308694;22;19891;-82
2022/04/11 05:16:15;;;;;;;;;;;;;;;16.15;52.24;101907.13;6310548;22;19919;-80
2022/04/11 05:19:07;;;;;;;;;;;;;;;16.15;52.48;101913.19;6280724;22;20359;-79
2022/04/11 05:30:08;;;;;;;;;;;;;;;;;;;;;
2022/04/11 05:32:34;;;;;;;;;;;;;;;16.19;52.11;101909.78;6318728;22;19942;-80
2022/04/11 05:34:59;;;;;;;;;;;;;;;16.21;52.26;101912.41;6290267;22;19914;-81
2022/04/11 05:37:25;;;;;;;;;;;;;;;16.22;52.02;101909.84;6317495;22;19907;-80
2022/04/11 05:39:50;;;;;;;;;;;;;;;16.22;51.86;101908.94;6290041;22;20201;-80
2022/04/11 05:42:15;;;;;;;;;;;;;;;16.23;51.79;101905.53;6288509;22;19961;-81
2022/04/11 05:44:41;;;;;;;;;;;;;;;16.25;51.56;101912.47;6288926;22;19914;-80
2022/04/11 05:47:06;;;;;;;;;;;;;;;16.24;51.67;101913.34;6262870;22;19995;-80
2022/04/11 05:49:31;;;;;;;;;;;;;;;16.28;51.59;101918.56;6262904;22;19918;-80
2022/04/11 05:51:56;;;;;;;;;;;;;;;16.29;51.79;101916.00;6263495;22;19911;-80
2022/04/11 05:54:22;;;;;;;;;;;;;;;16.31;51.63;101918.59;6290414;22;19907;-81
2022/04/11 05:56:47;;;;;;;;;;;;;;;16.34;51.54;101918.66;6289635;22;19907;-80
2022/04/11 05:59:12;;;;;;;;;;;;;;;16.36;51.54;101920.41;6263712;22;19921;-80
2022/04/11 06:01:40;;;;;;;;;;;;;;;16.38;51.40;101923.03;6287476;22;20320;-80
2022/04/11 06:04:05;;;;;;;;;;;;;;;16.41;51.64;101917.88;6263152;22;19911;-80
2022/04/11 06:06:30;;;;;;;;;;;;;;;16.44;51.41;101926.59;6316703;22;19968;-80
2022/04/11 06:08:55;;;;;;;;;;;;;;;16.48;51.32;101926.59;6266668;22;19911;-80
2022/04/11 06:11:21;;;;;;;;;;;;;;;16.63;50.80;101929.38;6319690;22;19907;-81
2022/04/11 06:13:46;;;;;;;;;;;;;;;16.73;50.95;101928.66;6291612;22;20338;-80
2022/04/11 06:16:12;;;;;;;;;;;;;;;16.92;50.82;101923.66;6317177;22;19997;-80
2022/04/11 06:18:37;;;;;;;;;;;;;;;17.11;50.79;101928.19;6288581;22;20311;-81
2022/04/11 06:21:02;;;;;;;;;;;;;;;17.21;50.40;101927.44;6263865;22;20322;-80
2022/04/11 06:23:27;;;;;;;;;;;;;;;17.33;50.47;101931.88;6264576;22;19942;-80
2022/04/11 06:25:53;;;;;;;;;;;;;;;17.44;50.61;101932.88;6288312;22;19913;-80
2022/04/11 06:28:18;;;;;;;;;;;;;;;17.50;50.88;101932.03;6257281;22;19918;-80
2022/04/11 06:30:43;;;;;;;;;;;;;;;17.61;50.83;101934.72;6282713;22;19919;-80
2022/04/11 06:33:08;;;;;;;;;;;;;;;17.64;51.54;101935.63;6282897;22;19907;-80
2022/04/11 06:35:34;;;;;;;;;;;;;;;17.66;51.82;101935.66;6282491;22;19911;-80
2022/04/11 06:37:59;;;;;;;;;;;;;;;17.67;52.13;101933.03;6282823;22;19908;-80
2022/04/11 06:40:24;;;;;;;;;;;;;;;17.76;52.12;101927.03;6285319;22;19931;-81
2022/04/11 06:42:49;;;;;;;;;;;;;;;17.65;52.38;101934.75;6259896;22;19907;-81
2022/04/11 06:45:15;;;;;;;;;;;;;;;17.51;53.11;101945.91;6289607;22;19982;-81
2022/04/11 06:47:42;;;;;;;;;;;;;;;17.39;52.82;101944.94;6294821;22;20315;-81
2022/04/11 06:50:08;;;;;;;;;;;;;;;17.42;53.09;101950.19;6295212;22;19907;-80
2022/04/11 07:03:47;;;;;;;;;;;;;;;17.35;50.92;101927.56;6319949;22;19909;-84
2022/04/11 07:06:37;;;;;;;;;;;;;;;17.36;50.37;101925.84;6334591;22;19936;-83
2022/04/11 07:09:40;;;;;;;;;;;;;;;17.34;50.08;101928.44;6272131;23;19912;-83
2022/04/11 07:12:38;;;;;;;;;;;;;;;17.33;49.86;101920.59;6241121;23;19892;-83
2022/04/11 07:15:30;;;;;;;;;;;;;;;17.32;49.65;101914.53;6238822;23;19908;-83
2022/04/11 07:18:14;;;;;;;;;;;;;;;17.29;50.13;101911.91;6216920;23;19896;-82
2022/04/11 07:26:48;;;;;;;;;;;;;;;17.32;49.93;101909.34;6241154;23;19919;-83
2022/04/11 07:35:38;;;;;;;;;;;;;;;17.66;49.33;101900.06;6242000;23;19899;-82
2022/04/11 07:41:27;;;;;;;;;;;;;;;17.85;48.98;101892.41;6242177;23;19915;-83
2022/04/11 08:25:43;;;;;;;;;;;;;;;17.91;50.99;101862.94;6305071;22;19918;-84
2022/04/11 09:00:24;;;;;;;;;;;;;;;17.90;50.94;101851.66;6285071;22;19931;-82
2022/04/11 09:03:09;;;;;;;;;;;;;;;17.88;51.32;101849.03;6299498;22;19949;-83
2022/04/11 09:05:55;;;;;;;;;;;;;;;17.88;51.00;101842.97;6310597;22;19918;-83
2022/04/11 09:08:42;;;;;;;;;;;;;;;17.89;50.98;101847.28;6313201;22;19923;-83
2022/04/11 09:11:09;;;;;;;;;;;;;;;17.88;50.57;101845.56;6307090;22;19958;-81
2022/04/11 09:13:54;;;;;;;;;;;;;;;17.86;50.30;101847.28;6308889;22;19898;-83
2022/04/11 17:23:53;;;;;;;;;;;;;;;17.91;47.16;101376.00;6312350;22;19941;-80
2022/04/11 17:26:18;;;;;;;;;;;;;;;17.92;47.01;101388.13;6296228;22;20319;-79
2022/04/11 17:31:51;;;;;;;;;;;;;;;17.91;47.24;101373.41;6329134;22;19937;-80
2022/04/11 17:34:16;;;;;;;;;;;;;;;17.89;47.26;101374.25;6300413;22;19907;-80
2022/04/11 17:36:41;;;;;;;;;;;;;;;17.88;47.06;101358.66;6279558;22;19910;-80
2022/04/11 17:39:06;;;;;;;;;;;;;;;17.87;47.18;101368.16;6305889;22;19931;-80
2022/04/11 17:41:32;;;;;;;;;;;;;;;17.88;46.89;101364.72;6302352;22;19915;-80
2022/04/11 17:43:57;;;;;;;;;;;;;;;17.86;47.08;101361.25;6270252;22;19911;-80
2022/04/11 17:46:24;;;;;;;;;;;;;;;17.85;47.15;101362.09;6305022;22;19921;-83
2022/04/11 17:48:59;;;;;;;;;;;;;;;17.86;47.18;101361.25;6331195;22;19902;-82
2022/04/11 17:54:57;;;;;;;;;;;;;;;17.91;47.35;101357.78;6241811;23;19899;-83
2022/04/11 18:00:36;;;;;;;;;;;;;;;17.92;47.83;101365.59;6241687;23;19903;-84
2022/04/11 18:03:22;;;;;;;;;;;;;;;17.92;47.66;101369.91;6241123;23;20335;-84
2022/04/11 18:21:40;;;;;;;;;;;;;;;17.89;48.01;101376.00;6213031;23;19919;-84
2022/04/11 18:24:26;;;;;;;;;;;;;;;17.89;48.13;101370.78;6131491;23;19921;-85
2022/04/11 18:36:48;;;;;;;;;;;;;;;17.89;48.03;101376.00;6037769;23;19958;-83
2022/04/11 18:42:31;;;;;;;;;;;;;;;17.87;48.08;101378.59;6092168;23;19962;-81
2022/04/11 18:48:17;;;;;;;;;;;;;;;17.86;48.43;101373.41;6183091;23;19916;-82
2022/04/11 18:56:55;;;;;;;;;;;;;;;17.85;48.81;101375.13;6241622;23;19963;-84
2022/04/11 18:59:25;;;;;;;;;;;;;;;17.84;48.70;101380.34;6242395;23;19943;-83
2022/04/11 19:02:12;;;;;;;;;;;;;;;17.83;48.93;101384.69;6206111;23;19892;-84
2022/04/11 19:05:14;;;;;;;;;;;;;;;17.82;48.78;101388.16;6152398;23;19940;-84
2022/04/11 19:17:01;;;;;;;;;;;;;;;17.84;50.70;101391.63;6335034;22;19963;-82
2022/04/11 19:22:30;;;;;;;;;;;;;;;17.88;50.33;101395.09;6320848;22;19918;-80
2022/04/11 19:24:56;;;;;;;;;;;;;;;17.87;50.05;101398.56;6293338;22;19918;-81
2022/04/11 19:30:28;;;;;;;;;;;;;;;17.85;49.71;101403.75;6328243;22;19914;-81
2022/04/11 19:33:03;;;;;;;;;;;;;;;17.85;49.79;101397.69;6267204;22;19965;-81
2022/04/11 19:35:33;;;;;;;;;;;;;;;17.85;49.75;101390.75;6323513;22;19980;-80
2022/04/11 19:37:58;;;;;;;;;;;;;;;17.84;49.85;101389.03;6300548;22;19907;-80
2022/04/11 19:40:24;;;;;;;;;;;;;;;17.84;49.89;101382.97;6296524;22;19907;-80
2022/04/11 19:42:49;;;;;;;;;;;;;;;17.83;49.66;101379.50;6290831;22;19918;-80
2022/04/11 19:45:14;;;;;;;;;;;;;;;17.83;49.93;101376.88;6264505;22;19917;-79
2022/04/11 19:50:23;;;;;;;;;;;;;;;17.81;49.72;101378.59;6294148;22;19937;-80
2022/04/11 19:52:49;;;;;;;;;;;;;;;17.81;49.76;101381.19;6265116;22;19910;-80
2022/04/11 19:55:14;;;;;;;;;;;;;;;17.81;49.82;101373.38;6290812;22;19907;-79
2022/04/11 19:57:40;;;;;;;;;;;;;;;17.82;49.97;101369.94;6311440;22;20371;-79
2022/04/11 20:00:06;;;;;;;;;;;;;;;17.81;50.02;101373.38;6284126;22;19914;-79
2022/04/11 20:02:31;;;;;;;;;;;;;;;17.82;50.02;101376.88;6284533;22;20389;-79
2022/04/11 20:04:56;;;;;;;;;;;;;;;17.80;49.97;101371.63;6288769;22;19922;-79
2022/04/11 20:07:22;;;;;;;;;;;;;;;17.81;49.75;101372.50;6317233;22;19911;-80
2022/04/11 20:09:47;;;;;;;;;;;;;;;17.81;49.86;101367.28;6290263;22;19913;-80
2022/04/11 20:12:13;;;;;;;;;;;;;;;17.81;50.03;101370.78;6287903;22;19914;-81
2022/04/11 20:14:41;;;;;;;;;;;;;;;17.81;49.88;101367.28;6288227;22;19911;-80
2022/04/11 20:17:08;;;;;;;;;;;;;;;17.79;49.93;101369.91;6314992;22;19956;-80
2022/04/11 20:19:35;;;;;;;;;;;;;;;17.80;49.80;101365.56;6288191;22;19911;-80
2022/04/11 20:22:01;;;;;;;;;;;;;;;17.80;49.92;101357.75;6323470;22;20279;-80
2022/04/11 20:24:27;;;;;;;;;;;;;;;17.80;49.90;101349.94;6269330;22;19911;-81
2022/04/11 20:26:54;;;;;;;;;;;;;;;17.78;49.82;101351.69;6296833;22;19914;-81
2022/04/11 20:29:19;;;;;;;;;;;;;;;17.79;49.92;101350.81;6298439;22;19911;-80
2022/04/11 20:31:45;;;;;;;;;;;;;;;17.79;49.80;101359.50;6297556;22;19907;-80
2022/04/11 20:34:10;;;;;;;;;;;;;;;17.78;50.04;101356.91;6293454;22;19911;-81
2022/04/11 20:36:35;;;;;;;;;;;;;;;17.78;49.99;101351.69;6291118;22;19959;-80
2022/04/11 20:39:00;;;;;;;;;;;;;;;17.78;49.89;101362.09;6289891;22;19914;-79
2022/04/11 20:41:28;;;;;;;;;;;;;;;17.78;49.88;101362.09;6314586;22;20236;-80
2022/04/11 20:43:54;;;;;;;;;;;;;;;17.78;49.88;101362.97;6288179;22;19907;-80
2022/04/11 20:46:19;;;;;;;;;;;;;;;17.78;49.62;101355.16;6266668;22;19918;-80
2022/04/11 20:48:44;;;;;;;;;;;;;;;17.78;49.90;101351.69;6287969;22;19906;-79
2022/04/11 20:51:09;;;;;;;;;;;;;;;17.78;49.79;101346.47;6286497;22;19911;-79
2022/04/11 20:53:35;;;;;;;;;;;;;;;17.77;49.84;101345.63;6287339;22;20001;-79
2022/04/11 20:56:01;;;;;;;;;;;;;;;17.78;49.79;101338.66;6288694;22;19915;-80
2022/04/11 20:58:27;;;;;;;;;;;;;;;17.77;49.85;101329.13;6291291;22;19907;-80
2022/04/11 21:00:52;;;;;;;;;;;;;;;17.77;49.63;101335.22;6290128;22;19976;-80
2022/04/11 21:03:18;;;;;;;;;;;;;;;17.77;49.78;101334.31;6292085;22;19907;-81
2022/04/11 21:05:45;;;;;;;;;;;;;;;17.77;49.64;101334.31;6294558;22;19911;-80
2022/04/11 21:08:11;;;;;;;;;;;;;;;17.77;49.71;101342.13;6293702;22;20217;-81
2022/04/11 21:10:48;;;;;;;;;;;;;;;17.74;49.79;101337.81;6296941;22;19907;-81
2022/04/11 21:13:39;;;;;;;;;;;;;;;17.71;50.12;101336.97;6301397;22;19907;-81
2022/04/11 21:16:31;;;;;;;;;;;;;;;17.68;50.28;101332.59;6333024;22;19943;-82
2022/04/11 21:22:00;;;;;;;;;;;;;;;17.63;50.17;101335.22;6333215;22;19914;-80
2022/04/11 21:24:28;;;;;;;;;;;;;;;17.60;50.34;101332.63;6305700;22;20236;-81
2022/04/11 21:26:53;;;;;;;;;;;;;;;17.59;50.19;101327.41;6306845;22;19913;-81
2022/04/11 21:29:19;;;;;;;;;;;;;;;17.56;50.44;101333.50;6306686;22;19911;-81
2022/04/11 21:31:44;;;;;;;;;;;;;;;17.56;50.25;101324.84;6308564;22;19960;-80
2022/04/11 21:34:09;;;;;;;;;;;;;;;17.54;50.44;101326.56;6300768;22;19907;-79
2022/04/11 21:36:34;;;;;;;;;;;;;;;17.56;50.44;101324.84;6294260;22;19918;-79
2022/04/11 21:39:00;;;;;;;;;;;;;;;17.54;50.12;101324.84;6267645;22;19967;-79
2022/04/11 21:41:25;;;;;;;;;;;;;;;17.53;50.37;101324.81;6266453;22;19915;-78
2022/04/11 21:43:51;;;;;;;;;;;;;;;17.51;50.36;101311.84;6269260;22;19919;-78
2022/04/11 21:46:17;;;;;;;;;;;;;;;17.52;50.24;101308.34;6295388;22;19906;-78
2022/04/11 21:48:42;;;;;;;;;;;;;;;17.53;50.39;101298.81;6292419;22;19972;-78
2022/04/11 21:51:08;;;;;;;;;;;;;;;17.48;50.07;101299.72;6291189;22;19951;-78
2022/04/11 21:53:34;;;;;;;;;;;;;;;17.49;50.24;101303.16;6293616;22;20319;-78
2022/04/11 21:55:59;;;;;;;;;;;;;;;17.50;50.04;101302.28;6296912;22;19933;-78
2022/04/11 21:58:25;;;;;;;;;;;;;;;17.49;50.30;101303.16;6323221;22;19929;-78
2022/04/11 22:00:51;;;;;;;;;;;;;;;17.47;50.29;101303.16;6266991;22;19911;-78
2022/04/11 22:03:17;;;;;;;;;;;;;;;17.47;50.04;101304.91;6289293;22;19907;-78
2022/04/11 22:05:42;;;;;;;;;;;;;;;17.46;49.94;101298.84;6267750;22;19970;-78
2022/04/11 22:08:08;;;;;;;;;;;;;;;17.47;50.09;101310.09;6267831;22;19918;-78
2022/04/11 22:10:34;;;;;;;;;;;;;;;17.46;49.92;101304.03;6293371;22;19911;-78
2022/04/11 22:13:00;;;;;;;;;;;;;;;17.45;49.78;101304.91;6293009;22;20235;-78
2022/04/11 22:15:25;;;;;;;;;;;;;;;17.46;49.92;101305.75;6292397;22;19926;-78
2022/04/11 22:17:50;;;;;;;;;;;;;;;17.46;50.11;101309.25;6266986;22;19960;-78
2022/04/11 22:20:16;;;;;;;;;;;;;;;17.45;50.06;101307.50;6263827;22;20009;-78
2022/04/11 22:22:41;;;;;;;;;;;;;;;17.45;50.10;101304.03;6288995;22;19911;-78
2022/04/11 22:25:09;;;;;;;;;;;;;;;17.45;50.19;101302.28;6292532;22;19959;-78
2022/04/11 22:27:34;;;;;;;;;;;;;;;17.45;50.39;101298.84;6291658;22;20323;-78
2022/04/11 22:30:00;;;;;;;;;;;;;;;17.44;50.10;101290.16;6319891;22;19914;-78
2022/04/11 22:32:26;;;;;;;;;;;;;;;17.42;50.00;101280.59;6292675;22;19934;-78
2022/04/11 22:34:51;;;;;;;;;;;;;;;17.42;49.85;101291.91;6292889;22;20385;-78
2022/04/11 22:37:17;;;;;;;;;;;;;;;17.43;49.85;101287.56;6291698;22;20273;-78
2022/04/11 22:39:42;;;;;;;;;;;;;;;17.42;50.17;101286.69;6284489;22;19964;-78
2022/04/11 22:42:08;;;;;;;;;;;;;;;17.42;49.96;101288.41;6312552;22;19906;-78
2022/04/11 22:44:34;;;;;;;;;;;;;;;17.40;50.04;101296.25;6284860;22;19914;-78
2022/04/11 22:46:59;;;;;;;;;;;;;;;17.41;49.91;101294.50;6284613;22;19906;-78
2022/04/11 22:49:24;;;;;;;;;;;;;;;17.39;49.83;101283.22;6311662;22;19918;-78
2022/04/11 22:51:49;;;;;;;;;;;;;;;17.39;49.89;101283.22;6259095;22;19911;-78
2022/04/11 22:54:15;;;;;;;;;;;;;;;17.39;49.84;101281.50;6258782;22;19911;-78
2022/04/11 22:56:40;;;;;;;;;;;;;;;17.38;49.78;101284.97;6285072;22;19942;-78
2022/04/11 22:59:05;;;;;;;;;;;;;;;17.39;49.75;101276.28;6258229;22;20315;-78
2022/04/11 23:01:30;;;;;;;;;;;;;;;17.40;50.07;101277.16;6257867;22;20005;-78
2022/04/11 23:03:56;;;;;;;;;;;;;;;17.38;49.76;101266.75;6284246;22;19907;-78
2022/04/11 23:06:22;;;;;;;;;;;;;;;17.39;50.03;101265.03;6311351;22;19906;-78
2022/04/11 23:08:48;;;;;;;;;;;;;;;17.38;49.74;101264.16;6290293;22;19914;-78
2022/04/11 23:11:13;;;;;;;;;;;;;;;17.38;49.80;101263.31;6290857;22;19918;-78
2022/04/11 23:13:39;;;;;;;;;;;;;;;17.37;49.81;101261.56;6318379;22;19910;-78
2022/04/11 23:16:06;;;;;;;;;;;;;;;17.37;49.98;101265.00;6285939;22;19969;-78
2022/04/11 23:18:31;;;;;;;;;;;;;;;17.35;49.55;101256.34;6305438;22;19921;-78
2022/04/11 23:20:57;;;;;;;;;;;;;;;17.36;50.09;101255.50;6290792;22;19911;-77
2022/04/11 23:23:23;;;;;;;;;;;;;;;17.36;49.50;101252.88;6318715;22;19914;-78
2022/04/11 23:25:48;;;;;;;;;;;;;;;17.37;49.86;101253.75;6317743;22;19907;-78
2022/04/11 23:28:14;;;;;;;;;;;;;;;17.36;49.59;101247.69;6290549;22;19917;-78
2022/04/11 23:30:42;;;;;;;;;;;;;;;17.36;49.75;101237.28;6290468;22;19986;-78
2022/04/11 23:33:09;;;;;;;;;;;;;;;17.36;49.43;101239.03;6317660;22;19950;-78
2022/04/11 23:35:36;;;;;;;;;;;;;;;17.35;49.72;101238.13;6289610;22;19914;-78
2022/04/11 23:38:03;;;;;;;;;;;;;;;17.36;49.93;101233.81;6289956;22;19911;-78
2022/04/11 23:43:13;;;;;;;;;;;;;;;17.35;49.91;101227.72;6317483;22;19934;-78
2022/04/11 23:45:38;;;;;;;;;;;;;;;17.36;49.77;101226.88;6285652;22;20331;-78
2022/04/11 23:48:03;;;;;;;;;;;;;;;17.34;49.72;101217.34;6310051;22;19907;-78
2022/04/11 23:50:29;;;;;;;;;;;;;;;17.35;49.96;101206.06;6282625;22;19960;-78
2022/04/11 23:52:54;;;;;;;;;;;;;;;17.35;49.98;101211.25;6310250;22;19914;-78
2022/04/11 23:55:20;;;;;;;;;;;;;;;17.35;49.98;101201.72;6282501;22;19911;-78
2022/04/11 23:57:45;;;;;;;;;;;;;;;17.35;49.94;101201.72;6282333;22;19910;-78
